Flight Track Log - Related Links

Times and Time Zones

All times are in EDT time to prevent confusion due to time zone crossing. See the SWA1319 flight status page for this flight to view local times or setup timezone preferences in your user account.

Time Position Orientation Groundspeed Altitude Reporting Facility
EDT Latitude Longitude Course Direction KTS MPH feet Rate Location/Type
Wed 10:55:41 AM 39.1833 -76.7667 288° West 219 252 2,800  Level Potomac TRACON
Wed 10:56:36 AM 39.2000 -76.8333 288° West 224 258 5,700 2,777 Climbing Potomac TRACON
Wed 10:57:42 AM 39.2167 -76.9333 282° West 259 298 8,400 2,380 Climbing Potomac TRACON
Wed 10:58:37 AM 39.2167 -77.0333 270° West 277 319 10,500 2,012 Climbing Potomac TRACON
Wed 11:00:26 AM 39.1547 -77.2083 246° West 337 388 13,900 1,917 Climbing Washington Center
Wed 11:01:26 AM 39.0747 -77.2681 210° Southwest 341 392 15,900 1,950 Climbing Washington Center
Wed 11:02:26 AM 38.9861 -77.3356 211° Southwest 361 415 17,800 1,567 Climbing Washington Center
Wed 11:04:26 AM 38.7625 -77.3886 190° South 392 451 20,600 1,600 Climbing Washington Center
Wed 11:05:26 AM 38.6514 -77.4206 193° South 412 474 22,600 1,700 Climbing Washington Center
Wed 11:06:26 AM 38.5442 -77.4817 204° Southwest 418 481 24,000 1,350 Climbing Washington Center
Wed 11:07:26 AM 38.4283 -77.5503 205° Southwest 428 493 25,300 1,300 Climbing Washington Center
Wed 11:08:26 AM 38.3411 -77.6539 223° Southwest 428 493 26,600 1,000 Climbing Washington Center
Wed 11:09:26 AM 38.2519 -77.7492 220° Southwest 428 493 27,300 1,200 Climbing Washington Center
Wed 11:10:26 AM 38.1461 -77.8281 210° Southwest 434 499 29,000 1,250 Climbing Washington Center
Wed 11:11:26 AM 38.0447 -77.8961 208° Southwest 434 499 29,800 850 Climbing Washington Center
Wed 11:12:26 AM 37.9372 -77.9642 207° Southwest 434 499 30,700 900 Climbing Washington Center
Wed 11:13:26 AM 37.8456 -78.0533 218° Southwest 434 499 31,600 900 Climbing Washington Center
Wed 11:14:26 AM 37.7703 -78.1611 229° Southwest 416 479 32,500 850 Climbing Washington Center
Wed 11:15:26 AM 37.7056 -78.2614 231° Southwest 412 474 33,300 750 Climbing Washington Center
Wed 11:16:26 AM 37.6303 -78.3689 229° Southwest 417 480 34,000 350 Climbing Washington Center
Wed 11:17:26 AM 37.5547 -78.4761 228° Southwest 412 474 34,000  Level Washington Center
Wed 11:18:26 AM 37.4725 -78.5933 229° Southwest 412 474 34,000  Level Washington Center
Wed 11:19:26 AM 37.3989 -78.7003 229° Southwest 412 474 34,000  Level Washington Center
Wed 11:20:26 AM 37.3231 -78.8042 227° Southwest 407 468 34,000  Level Washington Center
Wed 11:21:26 AM 37.2492 -78.9108 229° Southwest 407 468 34,000  Level Washington Center
Wed 11:22:26 AM 37.1797 -79.0067 228° Southwest 407 468 34,000  Level Washington Center
Wed 11:23:26 AM 37.1058 -79.1128 229° Southwest 407 468 34,000  Level Washington Center
Wed 11:24:26 AM 37.0297 -79.2186 228° Southwest 407 468 34,000  Level Washington Center
Wed 11:25:26 AM 36.9553 -79.3242 229° Southwest 407 468 34,000  Level Washington Center
Wed 11:26:26 AM 36.8811 -79.4297 229° Southwest 407 468 34,000  Level Washington Center
Wed 11:27:26 AM 36.7981 -79.5450 228° Southwest 407 468 34,000  Level Washington Center
Wed 11:29:17 AM 36.6544 -79.7408 228° Southwest 398 458 34,000  Level Atlanta Center
Wed 11:30:17 AM 36.5869 -79.8347 228° Southwest 409 471 34,000  Level Atlanta Center
Wed 11:31:17 AM 36.5111 -79.9394 228° Southwest 409 471 34,000  Level Atlanta Center
Wed 11:32:17 AM 36.4333 -80.0467 228° Southwest 414 476 34,000  Level Atlanta Center
Wed 11:33:17 AM 36.3597 -80.1508 229° Southwest 409 471 34,000  Level Atlanta Center
Wed 11:34:17 AM 36.2714 -80.2686 227° Southwest 409 471 34,000  Level Atlanta Center
Wed 11:35:17 AM 36.1953 -80.3697 227° Southwest 409 471 34,000  Level Atlanta Center
Wed 11:36:17 AM 36.1172 -80.4789 229° Southwest 409 471 34,000  Level Atlanta Center
Wed 11:37:17 AM 36.0389 -80.5875 228° Southwest 409 471 34,000  Level Atlanta Center
Wed 11:38:17 AM 35.9667 -80.6906 229° Southwest 409 471 34,000  Level Atlanta Center
Wed 11:39:17 AM 35.8861 -80.7992 228° Southwest 419 482 34,000  Level Atlanta Center
Wed 11:40:17 AM 35.8075 -80.9044 227° Southwest 419 482 34,000  Level Atlanta Center
Wed 11:41:17 AM 35.7369 -80.9969 227° Southwest 419 482 34,000  Level Atlanta Center
Wed 11:42:17 AM 35.6561 -81.1072 228° Southwest 419 482 34,000  Level Atlanta Center
Wed 11:43:17 AM 35.5647 -81.2178 225° Southwest 426 490 34,000  Level Atlanta Center
Wed 11:44:17 AM 35.4819 -81.3378 230° Southwest 450 518 34,000  Level Atlanta Center
Wed 11:45:17 AM 35.4050 -81.4397 227° Southwest 443 510 34,000  Level Atlanta Center
Wed 11:46:17 AM 35.3258 -81.5467 228° Southwest 435 501 34,000  Level Atlanta Center
Wed 11:47:17 AM 35.2444 -81.6533 227° Southwest 430 495 34,000  Level Atlanta Center
Wed 11:48:17 AM 35.1650 -81.7597 228° Southwest 425 489 34,000  Level Atlanta Center
Wed 11:49:17 AM 35.0936 -81.8506 226° Southwest 425 489 34,000  Level Atlanta Center
Wed 11:50:17 AM 35.0142 -81.9592 228° Southwest 425 489 34,000  Level Atlanta Center
Wed 11:51:17 AM 34.9514 -82.0672 235° Southwest 407 468 34,000  Level Atlanta Center
Wed 11:52:17 AM 34.8861 -82.1675 232° Southwest 396 456 34,000  Level Atlanta Center
Wed 11:53:17 AM 34.8231 -82.2778 235° Southwest 391 450 34,000  Level Atlanta Center
Wed 11:54:17 AM 34.7578 -82.3828 233° Southwest 391 450 34,000  Level Atlanta Center
Wed 11:55:17 AM 34.6842 -82.5056 234° Southwest 399 459 34,000  Level Atlanta Center
Wed 11:56:17 AM 34.6167 -82.6103 232° Southwest 399 459 34,000  Level Atlanta Center
Wed 11:57:17 AM 34.5531 -82.7172 234° Southwest 399 459 34,000  Level Atlanta Center
Wed 11:58:17 AM 34.4936 -82.8139 233° Southwest 399 459 34,000  Level Atlanta Center
Wed 11:59:17 AM 34.4300 -82.9181 234° Southwest 399 459 34,000  Level Atlanta Center
Wed 12:00:17 PM 34.3639 -83.0222 232° Southwest 393 452 34,000  Level Atlanta Center
Wed 12:01:17 PM 34.2981 -83.1286 233° Southwest 393 452 34,000  Level Atlanta Center
Wed 12:02:17 PM 34.2342 -83.2347 234° Southwest 393 452 34,000  Level Atlanta Center
Wed 12:03:17 PM 34.1681 -83.3383 232° Southwest 387 445 34,000  Level Atlanta Center
Wed 12:04:17 PM 34.1017 -83.4442 233° Southwest 392 451 34,000  Level Atlanta Center
Wed 12:05:17 PM 34.0292 -83.5575 232° Southwest 392 451 34,000  Level Atlanta Center
Wed 12:06:17 PM 33.9647 -83.6606 233° Southwest 392 451 34,000  Level Atlanta Center
Wed 12:07:17 PM 33.8983 -83.7661 233° Southwest 392 451 34,000  Level Atlanta Center
Wed 12:08:17 PM 33.8317 -83.8689 232° Southwest 392 451 34,000  Level Atlanta Center
Wed 12:09:17 PM 33.7650 -83.9739 233° Southwest 392 451 34,000  Level Atlanta Center
Wed 12:10:17 PM 33.7003 -84.0761 233° Southwest 392 451 34,000  Level Atlanta Center
Wed 12:11:17 PM 33.6417 -84.1836 237° Southwest 392 451 34,000 -500 Level Atlanta Center
Wed 12:12:17 PM 33.6311 -84.2958 264° West 374 430 33,000 -1,200 Descending Atlanta Center
Wed 12:13:17 PM 33.6267 -84.4281 268° West 382 440 31,600 -1,400 Descending Atlanta Center
Wed 12:14:17 PM 33.6325 -84.5603 273° West 388 447 30,200 -1,400 Descending Atlanta Center
Wed 12:15:17 PM 33.6361 -84.6925 272° West 393 452 28,800 -600 Descending Atlanta Center
Wed 12:16:17 PM 33.6394 -84.8247 272° West 402 463 29,000 -100 Climbing Atlanta Center
Wed 12:17:17 PM 33.6406 -84.9644 271° West 393 452 28,600 -900 Descending Atlanta Center
Wed 12:18:17 PM 33.6458 -85.0969 273° West 393 452 27,200 -1,400 Descending Atlanta Center
Wed 12:19:17 PM 33.6486 -85.2367 271° West 412 474 25,800 -1,450 Descending Atlanta Center
Wed 12:20:17 PM 33.6514 -85.3764 271° West 419 482 24,300 -1,650 Descending Atlanta Center
Wed 12:21:17 PM 33.6519 -85.5061 270° West 408 470 22,500 -1,650 Descending Atlanta Center
Wed 12:22:17 PM 33.6547 -85.6286 272° West 379 436 21,000 -1,350 Descending Atlanta Center
Wed 12:23:17 PM 33.6614 -85.7383 274° West 363 418 19,800 -1,350 Descending Atlanta Center
Wed 12:24:17 PM 33.6597 -85.8631 269° West 356 410 18,300 -1,453 Descending Atlanta Center
Wed 12:24:52 PM 33.6586 -85.9381 269° West 357 411 17,500 -1,500 Descending Atlanta Center
Wed 12:25:17 PM 33.6619 -85.9806 275° West 356 410 16,800 -2,204 Descending Atlanta Center
Wed 12:25:41 PM 33.6592 -86.0303 266° West 359 413 15,700 -2,300 Descending Atlanta Center
Wed 12:26:17 PM 33.6622 -86.0978 273° West 356 410 14,500 -2,066 Descending Atlanta Center
Wed 12:26:42 PM 33.6614 -86.1478 269° West 353 406 13,600 -2,100 Descending Atlanta Center
Wed 12:27:17 PM 33.6622 -86.2153 271° West 356 410 12,400 -2,111 Descending Atlanta Center
Wed 12:27:36 PM 33.6617 -86.2525 269° West 339 390 11,700 -1,500 Descending Atlanta Center
Wed 12:28:17 PM 33.6644 -86.3250 273° West 345 397 10,900 -787 Descending Atlanta Center
Wed 12:28:37 PM 33.6619 -86.3575 265° West 315 362 10,900 -900 Level Atlanta Center
Wed 12:29:17 PM 33.6647 -86.4200 273° West 319 367 10,000 -1,500 Descending Atlanta Center
Wed 12:29:49 PM 33.6658 -86.4722 271° West 270 311 9,100 -1,400 Descending Atlanta Center
Wed 12:30:17 PM 33.6672 -86.5122 272° West 294 338 8,600 -787 Descending Atlanta Center
Wed 12:30:50 PM 33.6642 -86.5522 265° West 227 261 8,300 -700 Descending Atlanta Center
Wed 12:31:17 PM 33.6658 -86.5797 274° West 252 290 7,900 -1,279 Descending Atlanta Center
Wed 12:31:51 PM 33.6506 -86.6067 236° Southwest 142 163 7,000 -1,900 Descending Atlanta Center
Wed 12:32:17 PM 33.6442 -86.6214 242° Southwest 185 213 6,000 -2,100 Descending Atlanta Center
Wed 12:32:51 PM 33.6247 -86.6433 223° Southwest 139 160 4,900 -2,000 Descending Atlanta Center
Wed 12:33:17 PM 33.6103 -86.6353 155° Southeast 140 161 4,000 -2,149 Descending Atlanta Center
Wed 12:33:58 PM 33.6033 -86.6700 257° West 166 191 2,500 -1,900 Descending Atlanta Center
Wed 12:34:17 PM 33.6008 -86.6850 259° West 131 151 2,100 -1,200 Descending Atlanta Center
Wed 12:34:53 PM 33.5900 -86.7094 242° Southwest 141 162 1,400 -1,167 Descending Atlanta Center
Wed 12:36:00 PM 33.5639 -86.7523 140° Southeast  Level Estimated
Wed 12:43:00 PM 33.5639 -86.7523 140° Southeast  Level Estimated
Wed 12:44:00 PM 33.5639 -86.7523 140° Southeast  Level Estimated

Login

Don't have an account? Register now (free) for customized features, flight alerts, and more!